首页
METAR-TAF:

METAR-TAF

机场 :

桂林兩江國際機場

桂林, 中华人民共和国

纬度: 25-20N, 经度: 110-18E, 海拔: 166米

当前天气观测

该预报发布于30分钟前的19:00 UTC
静风
温度 22°C
湿度 94%
气压 1009 hPa
能見度: 6000
少量云层高于5000英尺
散云层高于6600英尺

METAR: ZGKL 231900Z 00000MPS 6000 FEW050 SCT066 22/21 Q1009 NOSIG

时间: 03:30 (19:30 UTC)

预报

该预报发布于4小时和21分钟前的15:09 UTC
预报有效从23日的 18点(UTC)到 24日的 18点(UTC)
风速4节,风向东北
能見度: 6000

TAF: ZGKL 231509Z 2318/2418 05002MPS 6000 NSC TX32/2408Z TN19/2322Z

超过4000个机场的气象观测和天气预报(METAR&TAF报告)。

可查询的气象台以黄色和红色小点在地图上表示。

将鼠标移到小点上方,可查看气象台名称。

然后点击查看天气观测和预报。

如需切换地图:点击带黑十字的绿色按钮放大地图;点击带横线的绿色按钮缩小地图;或者点击绿色箭头查看邻近地区的地图。


METAR-TAF: